Terminal Aerodrome Forecast
Issued by NWS Bismarck, ND

Home | Current Version | Previous Version | Text Only | Print | Product List | Glossary Off
Versions: 1 2 3 4 5 6 7 8 9 10 11 12 13 14 15

101
FTUS43 KBIS 281730
TAFBIS
TAF
KBIS 281730Z 2818/2918 03011KT P6SM BKN080 OVC130
     FM282200 07008KT P6SM SCT080 BKN130
     FM291100 VRB03KT P6SM SCT250
     FM291700 08007KT P6SM SCT200=

USA.gov is the U.S. government's official web portal to all federal, state and local government web resources and services.